Time;durP1;ratioP1;P1;durP2;ratioP2;P2;SDS_P1;SDS_P2;PMS_P1;PMS_P2;Temp;Humidity;BMP_temperature;BMP_pressure;BME280_temperature;BME280_humidity;BME280_pressure;Samples;Min_cycle;Max_cycle;Signal;HPM_P1;HPM_P2
2022/09/17 00:00:08;;;;;;;13.05;2.10;;;;;;;-146.58;100.00;69501.63;4992109;28;20588;-68
2022/09/17 00:02:34;;;;;;;16.95;3.83;;;;;;;-146.58;100.00;69501.63;4994299;28;20030;-68
2022/09/17 00:04:59;;;;;;;13.93;4.15;;;;;;;-146.58;100.00;69501.63;4992523;28;20044;-68
2022/09/17 00:07:24;;;;;;;14.18;2.72;;;;;;;-146.58;100.00;69501.63;4993743;28;20026;-69
2022/09/17 00:09:50;;;;;;;5.03;2.40;;;;;;;-146.58;100.00;69501.63;4992129;28;20087;-68
2022/09/17 00:12:15;;;;;;;10.48;4.43;;;;;;;-146.58;100.00;69501.63;4993289;28;20046;-68
2022/09/17 00:14:41;;;;;;;17.40;4.50;;;;;;;-146.58;100.00;69501.63;4992115;28;20046;-68
2022/09/17 00:17:06;;;;;;;12.40;3.55;;;;;;;-146.58;100.00;69501.63;4993701;28;20022;-68
2022/09/17 00:19:31;;;;;;;12.15;4.15;;;;;;;-146.58;100.00;69501.63;4992519;28;20057;-66
2022/09/17 00:21:57;;;;;;;16.42;3.50;;;;;;;-146.58;100.00;69501.63;4992896;28;20034;-67
2022/09/17 00:24:22;;;;;;;14.57;3.50;;;;;;;-146.58;100.00;69501.63;4992511;28;20054;-67
2022/09/17 00:26:49;;;;;;;16.35;3.55;;;;;;;-146.58;100.00;69501.63;4994160;28;20026;-67
2022/09/17 00:29:14;;;;;;;13.23;4.90;;;;;;;-146.58;100.00;69501.63;4992021;28;20061;-67
2022/09/17 00:31:40;;;;;;;24.33;3.22;;;;;;;-146.58;100.00;69501.63;4993583;28;20156;-67
2022/09/17 00:34:06;;;;;;;14.05;4.97;;;;;;;-146.58;100.00;69501.63;4992251;28;20046;-67
2022/09/17 00:36:34;;;;;;;14.68;4.07;;;;;;;-146.58;100.00;69501.63;4993098;28;20050;-66
2022/09/17 00:39:00;;;;;;;17.45;3.65;;;;;;;-146.58;100.00;69501.63;4992215;28;20034;-67
2022/09/17 00:41:31;;;;;;;15.98;3.92;;;;;;;-146.58;100.00;69501.63;4994014;28;20053;-67
2022/09/17 00:43:59;;;;;;;17.77;5.13;;;;;;;-146.58;100.00;69501.63;4991314;28;20121;-66
2022/09/17 00:46:33;;;;;;;11.73;4.55;;;;;;;-146.58;100.00;69501.63;4993699;28;20022;-67
2022/09/17 00:49:03;;;;;;;25.85;5.53;;;;;;;-146.58;100.00;69501.63;4991729;28;20184;-67
2022/09/17 00:51:34;;;;;;;12.88;4.10;;;;;;;-146.58;100.00;69501.63;4992954;28;20042;-67
2022/09/17 00:54:02;;;;;;;17.23;5.25;;;;;;;-146.58;100.00;69501.63;4991747;28;20034;-68
2022/09/17 00:56:31;;;;;;;11.82;3.75;;;;;;;-146.58;100.00;69501.63;4993512;28;20034;-68
2022/09/17 00:58:57;;;;;;;17.92;4.68;;;;;;;-146.58;100.00;69501.63;4990472;28;20050;-63
2022/09/17 01:01:22;;;;;;;29.00;5.18;;;;;;;-146.58;100.00;69501.63;4993592;28;20113;-65
2022/09/17 01:03:48;;;;;;;19.40;4.57;;;;;;;-146.58;100.00;69501.63;4991688;28;20129;-66
2022/09/17 01:06:35;;;;;;;19.60;3.97;;;;;;;-146.58;100.00;69501.63;4992716;28;20030;-67
2022/09/17 01:09:28;;;;;;;18.92;3.88;;;;;;;-146.58;100.00;69501.63;4991206;28;20133;-67
2022/09/17 01:12:35;;;;;;;18.27;3.92;;;;;;;-146.58;100.00;69501.63;4992767;28;20026;-66
2022/09/17 01:15:18;;;;;;;66.10;9.93;;;;;;;-146.58;100.00;69501.63;4990666;28;20053;-66
2022/09/17 01:18:07;;;;;;;24.25;5.95;;;;;;;-146.58;100.00;69501.63;4992675;28;20040;-67
2022/09/17 01:21:09;;;;;;;17.67;6.05;;;;;;;-146.58;100.00;69501.63;4991612;28;20043;-67
2022/09/17 01:24:04;;;;;;;10.60;3.25;;;;;;;-146.58;100.00;69501.63;4990441;28;20034;-67
2022/09/17 01:26:45;;;;;;;19.60;6.75;;;;;;;-146.58;100.00;69501.63;4992779;28;20029;-67
2022/09/17 01:29:44;;;;;;;13.68;3.47;;;;;;;-146.58;100.00;69501.63;4990445;28;20490;-67
2022/09/17 01:32:37;;;;;;;30.13;6.20;;;;;;;-146.58;100.00;69501.63;4992125;28;20096;-67
2022/09/17 01:35:16;;;;;;;15.27;5.50;;;;;;;-146.58;100.00;69501.63;4991016;28;20042;-67
2022/09/17 01:37:41;;;;;;;;;;;;;;;-146.58;100.00;69501.63;4992731;28;20478;-67
2022/09/17 01:40:14;;;;;;;16.20;4.45;;;;;;;-146.58;100.00;69501.63;4990704;28;19922;-67
2022/09/17 01:43:07;;;;;;;23.30;5.38;;;;;;;-146.58;100.00;69501.63;4992470;28;20030;-67
2022/09/17 01:45:49;;;;;;;15.27;5.20;;;;;;;-146.58;100.00;69501.63;4990656;28;20046;-67
2022/09/17 01:48:19;;;;;;;15.25;3.33;;;;;;;-146.58;100.00;69501.63;4991992;28;20030;-67
2022/09/17 01:50:55;;;;;;;20.95;5.03;;;;;;;-146.58;100.00;69501.63;4990387;28;20052;-67
2022/09/17 01:53:27;;;;;;;14.80;4.28;;;;;;;-146.58;100.00;69501.63;4992786;28;20101;-67
2022/09/17 01:55:55;;;;;;;20.17;7.55;;;;;;;-146.58;100.00;69501.63;4990776;28;20318;-67
2022/09/17 01:58:34;;;;;;;16.23;6.97;;;;;;;-146.58;100.00;69501.63;4991895;28;20033;-67
2022/09/17 02:01:03;;;;;;;19.20;4.88;;;;;;;-146.58;100.00;69501.63;4990438;28;20050;-67
2022/09/17 02:03:40;;;;;;;16.55;4.35;;;;;;;-146.58;100.00;69501.63;4990806;28;20041;-66
2022/09/17 02:06:16;;;;;;;17.67;3.60;;;;;;;-146.58;100.00;69501.63;4991127;28;20113;-67
2022/09/17 02:08:53;;;;;;;14.75;4.57;;;;;;;-146.58;100.00;69501.63;4990418;28;20045;-66
2022/09/17 02:11:19;;;;;;;17.40;5.88;;;;;;;-146.58;100.00;69501.63;4992011;28;20030;-67
2022/09/17 02:14:09;;;;;;;15.13;4.93;;;;;;;-146.58;100.00;69501.63;4990028;28;20045;-67
2022/09/17 02:16:38;;;;;;;17.15;3.95;;;;;;;-146.58;100.00;69501.63;4991917;28;20506;-67
2022/09/17 02:19:30;;;;;;;14.90;3.80;;;;;;;-146.58;100.00;69501.63;4990617;28;20159;-67
2022/09/17 02:22:16;;;;;;;18.33;6.03;;;;;;;-146.58;100.00;69501.63;4990224;28;20113;-67
2022/09/17 02:24:51;;;;;;;15.25;5.05;;;;;;;-146.58;100.00;69501.63;4990359;28;20464;-67
2022/09/17 02:27:45;;;;;;;9.75;2.95;;;;;;;-146.58;100.00;69501.63;4991157;28;20023;-66
2022/09/17 02:30:11;;;;;;;21.73;5.43;;;;;;;-146.58;100.00;69501.63;4990053;28;20141;-67
2022/09/17 02:32:36;;;;;;;15.32;3.85;;;;;;;-146.58;100.00;69501.63;4991821;28;20018;-67
2022/09/17 02:35:02;;;;;;;23.63;5.57;;;;;;;-146.58;100.00;69501.63;4989230;28;20077;-67
2022/09/17 02:37:27;;;;;;;15.57;2.95;;;;;;;-146.58;100.00;69501.63;4991906;28;20494;-67
2022/09/17 02:39:53;;;;;;;15.25;4.03;;;;;;;-146.58;100.00;69501.63;4990169;28;20402;-67
2022/09/17 02:42:24;;;;;;;13.60;3.22;;;;;;;-146.58;100.00;69501.63;4991175;28;20076;-67
2022/09/17 02:44:57;;;;;;;15.02;3.40;;;;;;;-146.58;100.00;69501.63;4989689;28;20045;-65
2022/09/17 02:47:48;;;;;;;21.85;5.32;;;;;;;-146.58;100.00;69501.63;4989914;28;20037;-66
2022/09/17 02:50:41;;;;;;;16.98;4.00;;;;;;;-146.58;100.00;69501.63;4989320;28;20442;-65
2022/09/17 02:53:48;;;;;;;17.05;3.17;;;;;;;-146.58;100.00;69501.63;4989133;28;20500;-67
2022/09/17 02:56:45;;;;;;;17.05;4.03;;;;;;;-146.58;100.00;69501.63;4984681;28;20501;-68
2022/09/17 02:59:44;;;;;;;14.60;3.17;;;;;;;-146.58;100.00;69501.63;4989833;28;20042;-68
2022/09/17 03:02:24;;;;;;;18.45;4.10;;;;;;;-146.58;100.00;69501.63;4991054;28;20026;-68
2022/09/17 03:04:50;;;;;;;9.75;3.83;;;;;;;-146.58;100.00;69501.63;4989840;28;20494;-68
2022/09/17 03:07:18;;;;;;;18.42;4.55;;;;;;;-146.58;100.00;69501.63;4991115;28;20045;-68
2022/09/17 03:09:44;;;;;;;;;;;;;;;-146.58;100.00;69501.63;4990099;28;20074;-68
2022/09/17 03:12:10;;;;;;;15.30;3.87;;;;;;;-146.58;100.00;69501.63;4990738;28;19949;-68
2022/09/17 03:14:36;;;;;;;10.60;4.47;;;;;;;-146.58;100.00;69501.63;4989485;28;20461;-68
2022/09/17 03:17:02;;;;;;;14.85;4.55;;;;;;;-146.58;100.00;69501.63;4990761;28;20533;-68
2022/09/17 03:19:27;;;;;;;11.88;3.42;;;;;;;-146.58;100.00;69501.63;4989549;28;20054;-68
2022/09/17 03:21:53;;;;;;;16.90;6.38;;;;;;;-146.58;100.00;69501.63;4991346;28;20466;-68
2022/09/17 03:24:18;;;;;;;10.50;4.75;;;;;;;-146.58;100.00;69501.63;4989473;28;20137;-68
2022/09/17 03:26:46;;;;;;;14.85;5.25;;;;;;;-146.58;100.00;69501.63;4990728;28;20077;-68
2022/09/17 03:29:11;;;;;;;22.55;5.05;;;;;;;-146.58;100.00;69501.63;4989222;28;20065;-68
2022/09/17 03:31:37;;;;;;;16.10;3.75;;;;;;;-146.58;100.00;69501.63;4991161;28;20077;-68
2022/09/17 03:34:02;;;;;;;10.18;3.58;;;;;;;-146.58;100.00;69501.63;4988937;28;20046;-68
2022/09/17 03:36:27;;;;;;;16.58;5.05;;;;;;;-146.58;100.00;69501.63;4990302;28;20464;-68
2022/09/17 03:38:55;;;;;;;11.68;3.38;;;;;;;-146.58;100.00;69501.63;4989628;28;20039;-68
2022/09/17 03:41:20;;;;;;;16.02;3.70;;;;;;;-146.58;100.00;69501.63;4991252;28;20480;-67
2022/09/17 03:43:46;;;;;;;20.35;5.22;;;;;;;-146.58;100.00;69501.63;4989721;28;20034;-67
2022/09/17 03:46:11;;;;;;;16.30;3.95;;;;;;;-146.58;100.00;69501.63;4992601;28;20390;-67
2022/09/17 03:48:38;;;;;;;24.15;6.55;;;;;;;-146.58;100.00;69501.63;4993197;28;20022;-67
2022/09/17 03:51:04;;;;;;;8.32;3.92;;;;;;;-146.58;100.00;69501.63;4994343;28;20022;-67
2022/09/17 03:53:30;;;;;;;11.00;4.07;;;;;;;-146.58;100.00;69501.63;4993146;28;20108;-67
2022/09/17 03:56:03;;;;;;;14.82;5.05;;;;;;;-146.58;100.00;69501.63;4993400;28;20029;-66
2022/09/17 03:58:30;;;;;;;7.70;3.70;;;;;;;-146.58;100.00;69501.63;4992530;28;20559;-66
2022/09/17 04:00:56;;;;;;;13.57;3.13;;;;;;;-146.58;100.00;69501.63;4993989;28;20042;-67
2022/09/17 04:03:23;;;;;;;12.15;3.63;;;;;;;-146.58;100.00;69501.63;4994519;28;20054;-67
2022/09/17 04:05:48;;;;;;;9.98;3.75;;;;;;;-146.58;100.00;69501.63;4991899;28;20050;-67
2022/09/17 04:08:14;;;;;;;20.63;4.60;;;;;;;-146.58;100.00;69501.63;4994082;28;20215;-69
2022/09/17 04:10:39;;;;;;;14.10;4.72;;;;;;;-146.58;100.00;69501.63;4992837;28;20041;-72
2022/09/17 04:13:04;;;;;;;6.47;3.80;;;;;;;-146.58;100.00;69501.63;4993735;28;20474;-73
2022/09/17 04:15:30;;;;;;;9.80;3.88;;;;;;;-146.58;100.00;69501.63;4991816;28;20418;-69
2022/09/17 04:17:59;;;;;;;20.98;4.80;;;;;;;-146.58;100.00;69501.63;4993745;28;20022;-69
2022/09/17 04:20:24;;;;;;;16.13;5.40;;;;;;;-146.58;100.00;69501.63;4991416;28;20054;-69
2022/09/17 04:22:50;;;;;;;19.52;3.67;;;;;;;-146.58;100.00;69501.63;4994061;28;20030;-69
2022/09/17 04:25:16;;;;;;;12.30;4.55;;;;;;;-146.58;100.00;69501.63;4991464;28;20050;-70
2022/09/17 04:27:43;;;;;;;9.65;2.33;;;;;;;-146.58;100.00;69501.63;4993578;28;20474;-69
2022/09/17 04:30:09;;;;;;;15.88;3.30;;;;;;;-146.58;100.00;69501.63;4991963;28;20116;-69
2022/09/17 04:32:34;;;;;;;15.27;3.83;;;;;;;-146.58;100.00;69501.63;4993648;28;20461;-69
2022/09/17 04:34:59;;;;;;;15.98;4.10;;;;;;;-146.58;100.00;69501.63;4991426;28;20049;-65
2022/09/17 04:37:25;;;;;;;18.83;6.07;;;;;;;-146.58;100.00;69501.63;4992779;28;20022;-68
2022/09/17 04:39:51;;;;;;;22.88;6.15;;;;;;;-146.58;100.00;69501.63;4992330;28;20523;-69
2022/09/17 04:42:16;;;;;;;15.32;4.57;;;;;;;-146.58;100.00;69501.63;4993339;28;20034;-62
2022/09/17 04:44:42;;;;;;;13.48;2.83;;;;;;;-146.58;100.00;69501.63;4990362;28;20039;-62
2022/09/17 04:47:07;;;;;;;20.00;3.42;;;;;;;-146.58;100.00;69501.63;4992417;28;20478;-62
2022/09/17 04:49:33;;;;;;;8.65;2.35;;;;;;;-146.58;100.00;69501.63;4990738;28;20042;-62
2022/09/17 04:51:58;;;;;;;15.18;4.25;;;;;;;-146.58;100.00;69501.63;4992062;28;20026;-62
2022/09/17 04:54:23;;;;;;;10.93;3.67;;;;;;;-146.58;100.00;69501.63;4990501;28;20053;-62
2022/09/17 04:56:49;;;;;;;14.48;5.20;;;;;;;-146.58;100.00;69501.63;4993083;28;20019;-62
2022/09/17 04:59:14;;;;;;;10.18;3.50;;;;;;;-146.58;100.00;69501.63;4991150;28;20521;-63
2022/09/17 05:01:42;;;;;;;9.18;2.97;;;;;;;-146.58;100.00;69501.63;4993401;28;20022;-63
2022/09/17 05:04:07;;;;;;;12.15;4.13;;;;;;;-146.58;100.00;69501.63;4991310;28;20042;-63
2022/09/17 05:06:32;;;;;;;20.70;6.05;;;;;;;-146.58;100.00;69501.63;4992383;28;20026;-62
2022/09/17 05:08:58;;;;;;;8.82;3.22;;;;;;;-146.58;100.00;69501.63;4996232;28;20400;-63
2022/09/17 05:11:23;;;;;;;11.95;2.75;;;;;;;-146.58;100.00;69501.63;5012367;28;20022;-62
2022/09/17 05:13:49;;;;;;;18.92;4.80;;;;;;;-146.58;100.00;69501.63;4997886;28;20042;-62
2022/09/17 05:16:14;;;;;;;7.93;2.83;;;;;;;-146.58;100.00;69501.63;4990228;28;20031;-63
2022/09/17 05:18:39;;;;;;;11.95;2.63;;;;;;;-146.58;100.00;69501.63;4990700;28;20190;-65
2022/09/17 05:21:05;;;;;;;9.98;2.50;;;;;;;-146.58;100.00;69501.63;4991902;28;20026;-65
2022/09/17 05:23:30;;;;;;;7.43;2.67;;;;;;;-146.58;100.00;69501.63;4990686;28;20030;-65
2022/09/17 05:25:59;;;;;;;7.00;2.20;;;;;;;-146.58;100.00;69501.63;4990036;28;20037;-63
2022/09/17 05:28:25;;;;;;;9.77;4.20;;;;;;;-146.58;100.00;69501.63;4990177;28;20030;-61
2022/09/17 05:30:50;;;;;;;20.80;5.10;;;;;;;-146.58;100.00;69501.63;4991970;28;20046;-63
2022/09/17 05:33:16;;;;;;;21.90;4.93;;;;;;;-146.58;100.00;69501.63;4990882;28;20026;-63
2022/09/17 05:35:43;;;;;;;10.75;3.15;;;;;;;-146.58;100.00;69501.63;4990714;28;20034;-66
2022/09/17 05:38:09;;;;;;;9.23;3.55;;;;;;;-146.58;100.00;69501.63;4990181;28;20514;-66
2022/09/17 05:40:34;;;;;;;11.25;4.32;;;;;;;-146.58;100.00;69501.63;4989267;28;20057;-67
2022/09/17 05:43:02;;;;;;;13.20;3.90;;;;;;;-146.58;100.00;69501.63;4988098;28;20026;-64
2022/09/17 05:45:28;;;;;;;4.78;2.67;;;;;;;-146.58;100.00;69501.63;4978998;28;20188;-65
2022/09/17 05:47:57;;;;;;;14.30;3.35;;;;;;;-146.58;100.00;69501.63;4989594;28;20033;-62
2022/09/17 05:50:24;;;;;;;13.60;3.72;;;;;;;-146.58;100.00;69501.63;4985895;28;20069;-63
2022/09/17 05:52:51;;;;;;;9.68;3.38;;;;;;;-146.58;100.00;69501.63;4991861;28;20089;-63
2022/09/17 05:55:18;;;;;;;15.18;4.63;;;;;;;-146.58;100.00;69501.63;4982136;28;20047;-64
2022/09/17 05:57:43;;;;;;;9.30;2.53;;;;;;;-146.58;100.00;69501.63;4982919;28;20056;-63
2022/09/17 06:00:10;;;;;;;11.07;4.25;;;;;;;-146.58;100.00;69501.63;4989623;28;20038;-65
2022/09/17 06:02:36;;;;;;;12.13;3.25;;;;;;;-146.58;100.00;69501.63;4988315;28;20054;-61
2022/09/17 06:05:02;;;;;;;8.50;3.42;;;;;;;-146.58;100.00;69501.63;4990127;28;20038;-61
2022/09/17 06:07:28;;;;;;;9.35;2.67;;;;;;;-146.58;100.00;69501.63;4991400;28;20030;-61
2022/09/17 06:09:53;;;;;;;12.63;3.15;;;;;;;-146.58;100.00;69501.63;4988516;28;20047;-62
2022/09/17 06:12:18;;;;;;;17.83;4.50;;;;;;;-146.58;100.00;69501.63;4991062;28;20496;-62
2022/09/17 06:14:44;;;;;;;7.82;3.13;;;;;;;-146.58;100.00;69501.63;4989890;28;20042;-62
2022/09/17 06:17:09;;;;;;;13.27;4.57;;;;;;;-146.58;100.00;69501.63;4989734;28;20026;-62
2022/09/17 06:19:35;;;;;;;11.50;4.40;;;;;;;-146.58;100.00;69501.63;4990159;28;20042;-62
2022/09/17 06:22:00;;;;;;;12.93;4.20;;;;;;;-146.58;100.00;69501.63;4990848;28;20034;-62
2022/09/17 06:24:26;;;;;;;12.10;3.47;;;;;;;-146.58;100.00;69501.63;4988836;28;20047;-62
2022/09/17 06:26:52;;;;;;;9.93;3.20;;;;;;;-146.58;100.00;69501.63;4990648;28;20606;-62
2022/09/17 06:29:18;;;;;;;29.90;7.13;;;;;;;-146.58;100.00;69501.63;4989963;28;20088;-62
2022/09/17 06:31:43;;;;;;;9.32;3.25;;;;;;;-146.58;100.00;69501.63;4989635;28;20054;-62
2022/09/17 06:34:09;;;;;;;14.45;4.85;;;;;;;-146.58;100.00;69501.63;4989840;28;20038;-62
2022/09/17 06:36:34;;;;;;;11.23;3.40;;;;;;;-146.58;100.00;69501.63;4991220;28;20030;-62
2022/09/17 06:38:59;;;;;;;7.60;3.28;;;;;;;-146.58;100.00;69501.63;4987687;28;20097;-62
2022/09/17 06:41:25;;;;;;;14.50;3.70;;;;;;;-146.58;100.00;69501.63;4990492;28;20034;-61
2022/09/17 06:43:53;;;;;;;10.73;4.15;;;;;;;-146.58;100.00;69501.63;4989983;28;20041;-62
2022/09/17 06:46:18;;;;;;;12.02;2.63;;;;;;;-146.58;100.00;69501.63;4991092;28;20080;-62
2022/09/17 06:48:43;;;;;;;10.70;3.13;;;;;;;-146.58;100.00;69501.63;4989314;28;20018;-62
2022/09/17 06:51:10;;;;;;;21.65;4.35;;;;;;;-146.58;100.00;69501.63;4990417;28;20018;-62
2022/09/17 06:53:36;;;;;;;12.27;4.57;;;;;;;-146.58;100.00;69501.63;4990051;28;20449;-62
2022/09/17 06:56:03;;;;;;;7.18;2.13;;;;;;;-146.58;100.00;69501.63;4990621;28;20022;-62
2022/09/17 06:58:29;;;;;;;14.75;2.90;;;;;;;-146.58;100.00;69501.63;4991077;28;20034;-61
2022/09/17 07:01:01;;;;;;;14.15;3.60;;;;;;;-146.58;100.00;69501.63;4987174;28;20533;-62
2022/09/17 07:03:28;;;;;;;9.45;2.67;;;;;;;-146.58;100.00;69501.63;4981046;28;20041;-62
2022/09/17 07:05:53;;;;;;;9.80;2.97;;;;;;;-146.58;100.00;69501.63;4988895;28;20192;-62
2022/09/17 07:08:18;;;;;;;9.95;2.72;;;;;;;-146.58;100.00;69501.63;4990766;28;20018;-62
2022/09/17 07:10:44;;;;;;;9.30;3.17;;;;;;;-146.58;100.00;69501.63;4988612;28;20077;-62
2022/09/17 07:13:09;;;;;;;11.30;3.25;;;;;;;-146.58;100.00;69501.63;4990674;28;20478;-62
2022/09/17 07:15:34;;;;;;;10.55;2.03;;;;;;;-146.58;100.00;69501.63;4988833;28;20042;-62
2022/09/17 07:18:07;;;;;;;8.68;2.97;;;;;;;-146.58;100.00;69501.63;4990277;28;20026;-62
2022/09/17 07:20:32;;;;;;;7.05;2.28;;;;;;;-146.58;100.00;69501.63;4998295;28;20050;-62
2022/09/17 07:22:58;;;;;;;10.48;1.80;;;;;;;-146.58;100.00;69501.63;5012687;28;20405;-62
2022/09/17 07:25:25;;;;;;;6.95;2.13;;;;;;;-146.58;100.00;69501.63;4992958;28;20043;-62
2022/09/17 07:27:50;;;;;;;6.60;3.25;;;;;;;-146.58;100.00;69501.63;4994193;28;20030;-62
2022/09/17 07:30:16;;;;;;;15.20;3.13;;;;;;;-146.58;100.00;69501.63;4992434;28;20125;-61
2022/09/17 07:32:41;;;;;;;7.82;1.52;;;;;;;-146.58;100.00;69501.63;4994331;28;20022;-61
2022/09/17 07:35:07;;;;;;;4.97;2.20;;;;;;;-146.58;100.00;69501.63;4992367;28;20069;-61
2022/09/17 07:37:32;;;;;;;9.60;1.77;;;;;;;-146.58;100.00;69501.63;4994175;28;20437;-61
2022/09/17 07:39:58;;;;;;;8.27;2.13;;;;;;;-146.58;100.00;69501.63;4992163;28;20582;-61
2022/09/17 07:42:23;;;;;;;9.13;2.22;;;;;;;-146.58;100.00;69501.63;4994492;28;20038;-62
2022/09/17 07:44:48;;;;;;;3.90;1.40;;;;;;;-146.58;100.00;69501.63;4991860;28;20413;-65
2022/09/17 07:47:14;;;;;;;5.22;2.15;;;;;;;-146.58;100.00;69501.63;4992433;28;20088;-62
2022/09/17 07:49:39;;;;;;;10.15;2.65;;;;;;;-146.58;100.00;69501.63;4992519;28;20046;-62
2022/09/17 07:52:05;;;;;;;7.20;2.35;;;;;;;-146.58;100.00;69501.63;4994100;28;20018;-61
2022/09/17 07:54:32;;;;;;;11.40;3.45;;;;;;;-146.58;100.00;69501.63;4992205;28;20613;-62
2022/09/17 07:56:57;;;;;;;6.95;1.77;;;;;;;-146.58;100.00;69501.63;4993335;28;20105;-62
2022/09/17 07:59:23;;;;;;;3.65;1.35;;;;;;;-146.58;100.00;69501.63;4992509;28;20161;-62
2022/09/17 08:01:48;;;;;;;6.00;2.83;;;;;;;-146.58;100.00;69501.63;4991251;28;20398;-62
2022/09/17 08:04:14;;;;;;;9.35;2.25;;;;;;;-146.58;100.00;69501.63;4992406;28;20046;-62
2022/09/17 08:06:39;;;;;;;3.90;1.65;;;;;;;-146.58;100.00;69501.63;4993474;28;20026;-62
2022/09/17 08:09:06;;;;;;;8.15;3.55;;;;;;;-146.58;100.00;69501.63;4991825;28;20046;-62
2022/09/17 08:11:32;;;;;;;4.20;1.73;;;;;;;-146.58;100.00;69501.63;4993480;28;20022;-62
2022/09/17 08:13:57;;;;;;;10.70;4.60;;;;;;;-146.58;100.00;69501.63;4991745;28;20081;-63
2022/09/17 08:16:23;;;;;;;5.18;2.20;;;;;;;-146.58;100.00;69501.63;4993453;28;20037;-62
2022/09/17 08:18:53;;;;;;;18.90;3.08;;;;;;;-146.58;100.00;69501.63;4992290;28;20096;-62
2022/09/17 08:21:19;;;;;;;6.95;2.20;;;;;;;-146.58;100.00;69501.63;4993408;28;20038;-62
2022/09/17 08:23:44;;;;;;;7.18;2.63;;;;;;;-146.58;100.00;69501.63;4991237;28;20040;-63
2022/09/17 08:26:15;;;;;;;3.85;1.73;;;;;;;-146.58;100.00;69501.63;4992294;28;20053;-63
2022/09/17 08:28:45;;;;;;;6.50;1.92;;;;;;;-146.58;100.00;69501.63;4991628;28;20023;-63
2022/09/17 08:31:10;;;;;;;5.47;1.55;;;;;;;-146.58;100.00;69501.63;4991781;28;20138;-62
2022/09/17 08:33:37;;;;;;;1.50;1.10;;;;;;;-146.58;100.00;69501.63;4990346;28;20026;-62
2022/09/17 08:36:05;;;;;;;7.60;1.70;;;;;;;-146.58;100.00;69501.63;4992182;28;20110;-63
2022/09/17 08:38:32;;;;;;;7.80;2.03;;;;;;;-146.58;100.00;69501.63;4990725;28;20026;-62
2022/09/17 08:41:21;;;;;;;4.63;1.42;;;;;;;-146.58;100.00;69501.63;4992146;28;20023;-63
2022/09/17 08:43:49;;;;;;;;;;;;;;;-146.58;100.00;69501.63;4984235;28;20065;-62
2022/09/17 08:46:14;;;;;;;4.78;2.08;;;;;;;-146.58;100.00;69501.63;4991537;28;19949;-63
2022/09/17 08:49:04;;;;;;;2.80;1.83;;;;;;;-146.58;100.00;69501.63;4991604;28;20474;-63
2022/09/17 08:51:50;;;;;;;6.72;2.05;;;;;;;-146.58;100.00;69501.63;4990382;28;20037;-63
2022/09/17 08:54:24;;;;;;;4.28;1.83;;;;;;;-146.58;100.00;69501.63;4990563;28;20051;-62
2022/09/17 08:57:18;;;;;;;8.60;2.05;;;;;;;-146.58;100.00;69501.63;4991592;28;20449;-62
2022/09/17 09:00:05;;;;;;;4.47;1.60;;;;;;;-146.58;100.00;69501.63;4991256;28;20519;-61
2022/09/17 09:02:55;;;;;;;1.73;1.20;;;;;;;-146.58;100.00;69501.63;4992975;28;20608;-61
2022/09/17 09:05:41;;;;;;;2.03;1.55;;;;;;;-146.58;100.00;69501.63;4991403;28;20042;-62
2022/09/17 09:08:20;;;;;;;5.75;1.75;;;;;;;-146.58;100.00;69501.63;4992237;28;20031;-62
2022/09/17 09:10:50;;;;;;;;;;;;;;;-146.58;100.00;69501.63;4991381;28;20525;-63
2022/09/17 09:13:19;;;;;;;4.80;2.40;;;;;;;-146.58;100.00;69501.63;4992133;28;19960;-62
2022/09/17 09:15:53;;;;;;;2.95;1.30;;;;;;;-146.58;100.00;69501.63;4990980;28;20062;-62
2022/09/17 09:18:21;;;;;;;2.83;0.82;;;;;;;-146.58;100.00;69501.63;4992150;28;20037;-70
2022/09/17 09:20:53;;;;;;;;;;;;;;;-146.58;100.00;69501.63;4991128;28;20073;-63
2022/09/17 09:23:30;;;;;;;6.05;2.40;;;;;;;-146.58;100.00;69501.63;4992061;28;20289;-62
2022/09/17 09:26:12;;;;;;;7.22;2.20;;;;;;;-146.58;100.00;69501.63;4990709;28;20042;-62
2022/09/17 09:28:55;;;;;;;5.35;1.20;;;;;;;-146.58;100.00;69501.63;4991192;28;20445;-62
2022/09/17 09:31:40;;;;;;;6.05;1.33;;;;;;;-146.58;100.00;69501.63;4991613;28;20494;-63
2022/09/17 09:34:05;;;;;;;3.00;1.30;;;;;;;-146.58;100.00;69501.63;4990842;28;20514;-63
2022/09/17 09:36:32;;;;;;;1.95;1.33;;;;;;;-146.58;100.00;69501.63;4992154;28;20033;-62
2022/09/17 09:39:22;;;;;;;3.53;1.58;;;;;;;-146.58;100.00;69501.63;4990155;28;20197;-63
2022/09/17 09:42:09;;;;;;;5.28;1.75;;;;;;;-146.58;100.00;69501.63;4992040;28;20054;-62
2022/09/17 09:44:35;;;;;;;6.03;1.58;;;;;;;-146.58;100.00;69501.63;4988736;28;20139;-62
2022/09/17 09:47:14;;;;;;;4.45;1.67;;;;;;;-146.58;100.00;69501.63;4992000;28;20018;-68
2022/09/17 09:50:11;;;;;;;2.92;1.05;;;;;;;-146.58;100.00;69501.63;4990431;28;20049;-62
2022/09/17 09:53:02;;;;;;;4.35;1.67;;;;;;;-146.58;100.00;69501.63;4986965;28;20485;-63
2022/09/17 09:55:41;;;;;;;6.05;1.52;;;;;;;-146.58;100.00;69501.63;4971280;28;20038;-63
2022/09/17 09:58:28;;;;;;;1.25;1.00;;;;;;;-146.58;100.00;69501.63;4978728;28;20026;-63
2022/09/17 10:00:53;;;;;;;8.30;2.95;;;;;;;-146.58;100.00;69501.63;4990218;28;20494;-63
2022/09/17 10:03:26;;;;;;;5.30;1.40;;;;;;;-146.58;100.00;69501.63;4991537;28;20041;-63
2022/09/17 10:05:53;;;;;;;1.38;1.17;;;;;;;-146.58;100.00;69501.63;4992942;28;20065;-63
2022/09/17 10:08:18;;;;;;;4.88;1.15;;;;;;;-146.58;100.00;69501.63;5002579;28;20520;-63
2022/09/17 10:11:15;;;;;;;3.05;1.70;;;;;;;-146.58;100.00;69501.63;4990089;28;20038;-63
2022/09/17 10:13:40;;;;;;;5.63;2.72;;;;;;;-146.58;100.00;69501.63;4989290;28;20097;-62
2022/09/17 10:16:15;;;;;;;2.85;1.13;;;;;;;-146.58;100.00;69501.63;4990875;28;20125;-63
2022/09/17 10:18:41;;;;;;;3.80;2.25;;;;;;;-146.58;100.00;69501.63;4989966;28;20038;-62
2022/09/17 10:21:18;;;;;;;4.55;1.67;;;;;;;-146.58;100.00;69501.63;4990555;28;20049;-63
2022/09/17 10:23:44;;;;;;;2.25;0.90;;;;;;;-146.58;100.00;69501.63;4990029;28;20022;-62
2022/09/17 10:26:21;;;;;;;2.95;1.00;;;;;;;-146.58;100.00;69501.63;4991195;28;20030;-62
2022/09/17 10:28:53;;;;;;;2.08;1.33;;;;;;;-146.58;100.00;69501.63;4988996;28;20131;-62
2022/09/17 10:31:18;;;;;;;5.18;1.67;;;;;;;-146.58;100.00;69501.63;4990045;28;20082;-63
2022/09/17 10:34:17;;;;;;;4.68;1.45;;;;;;;-146.58;100.00;69501.63;4988522;28;20072;-63
2022/09/17 10:36:44;;;;;;;6.80;1.02;;;;;;;-146.58;100.00;69501.63;4990305;28;20030;-63
2022/09/17 10:39:26;;;;;;;5.25;1.23;;;;;;;-146.58;100.00;69501.63;4989396;28;20054;-63
2022/09/17 10:42:24;;;;;;;5.90;2.08;;;;;;;-146.58;100.00;69501.63;4991203;28;20501;-63
2022/09/17 10:44:57;;;;;;;3.50;1.58;;;;;;;-146.58;100.00;69501.63;4980847;28;20038;-63
2022/09/17 10:47:28;;;;;;;4.80;1.25;;;;;;;-146.58;100.00;69501.63;4986726;28;20085;-63
2022/09/17 10:50:05;;;;;;;1.77;0.75;;;;;;;-146.58;100.00;69501.63;4989913;28;20038;-63
2022/09/17 10:52:34;;;;;;;11.40;1.10;;;;;;;-146.58;100.00;69501.63;4972185;28;20521;-63
2022/09/17 10:55:24;;;;;;;1.80;1.30;;;;;;;-146.58;100.00;69501.63;4972460;28;20049;-63
2022/09/17 10:58:07;;;;;;;4.60;1.25;;;;;;;-146.58;100.00;69501.63;4980158;28;20030;-63
2022/09/17 11:00:39;;;;;;;3.10;1.15;;;;;;;-146.58;100.00;69501.63;4993054;28;20129;-63
2022/09/17 11:03:23;;;;;;;13.30;1.27;;;;;;;-146.58;100.00;69501.63;4995307;28;20065;-63
2022/09/17 11:06:02;;;;;;;6.03;3.28;;;;;;;-146.58;100.00;69501.63;4993941;28;20065;-63
2022/09/17 11:08:49;;;;;;;2.20;1.55;;;;;;;-146.58;100.00;69501.63;4993397;28;20035;-62
2022/09/17 11:11:28;;;;;;;1.30;1.20;;;;;;;-146.58;100.00;69501.63;4995101;28;20029;-63
2022/09/17 11:14:16;;;;;;;2.03;0.70;;;;;;;-146.58;100.00;69501.63;4993401;28;20169;-63
2022/09/17 11:17:11;;;;;;;4.70;2.15;;;;;;;-146.58;100.00;69501.63;4994975;28;20401;-63
2022/09/17 11:19:58;;;;;;;2.95;1.65;;;;;;;-146.58;100.00;69501.63;4993489;28;20046;-63
2022/09/17 11:22:46;;;;;;;3.72;2.17;;;;;;;-146.58;100.00;69501.63;4995189;28;20049;-63
2022/09/17 11:25:32;;;;;;;2.40;1.52;;;;;;;-146.58;100.00;69501.63;4993081;28;20041;-63